sensor_id;sensor_type;location;lat;lon;timestamp;temperature;humidity
81935;DHT22;71405;47.674;-2.050;2024-03-08T00:01:09;18.60;51.20
81935;DHT22;71405;47.674;-2.050;2024-03-08T00:03:35;18.60;51.30
81935;DHT22;71405;47.674;-2.050;2024-03-08T00:06:01;18.60;50.40
81935;DHT22;71405;47.674;-2.050;2024-03-08T00:08:27;18.60;50.90
81935;DHT22;71405;47.674;-2.050;2024-03-08T00:10:53;18.60;51.50
81935;DHT22;71405;47.674;-2.050;2024-03-08T00:13:19;18.60;52.60
81935;DHT22;71405;47.674;-2.050;2024-03-08T00:15:45;18.50;50.80
81935;DHT22;71405;47.674;-2.050;2024-03-08T00:18:11;18.60;51.40
81935;DHT22;71405;47.674;-2.050;2024-03-08T00:20:37;18.60;50.70
81935;DHT22;71405;47.674;-2.050;2024-03-08T00:23:02;18.50;50.70
81935;DHT22;71405;47.674;-2.050;2024-03-08T00:25:28;18.60;50.50
81935;DHT22;71405;47.674;-2.050;2024-03-08T00:27:54;18.50;50.70
81935;DHT22;71405;47.674;-2.050;2024-03-08T00:30:23;18.60;50.30
81935;DHT22;71405;47.674;-2.050;2024-03-08T00:32:49;18.60;50.80
81935;DHT22;71405;47.674;-2.050;2024-03-08T00:35:15;18.60;50.00
81935;DHT22;71405;47.674;-2.050;2024-03-08T00:37:41;18.50;50.70
81935;DHT22;71405;47.674;-2.050;2024-03-08T00:40:08;18.60;50.40
81935;DHT22;71405;47.674;-2.050;2024-03-08T00:42:34;18.50;50.70
81935;DHT22;71405;47.674;-2.050;2024-03-08T00:45:01;18.60;50.50
81935;DHT22;71405;47.674;-2.050;2024-03-08T00:47:26;18.60;51.10
81935;DHT22;71405;47.674;-2.050;2024-03-08T00:49:52;18.50;51.10
81935;DHT22;71405;47.674;-2.050;2024-03-08T00:52:19;18.50;50.80
81935;DHT22;71405;47.674;-2.050;2024-03-08T00:54:44;18.50;50.70
81935;DHT22;71405;47.674;-2.050;2024-03-08T00:57:10;18.50;50.90
81935;DHT22;71405;47.674;-2.050;2024-03-08T00:59:38;18.50;50.40
81935;DHT22;71405;47.674;-2.050;2024-03-08T01:02:04;18.50;50.70
81935;DHT22;71405;47.674;-2.050;2024-03-08T01:04:29;18.50;50.70
81935;DHT22;71405;47.674;-2.050;2024-03-08T01:06:59;18.50;50.80
81935;DHT22;71405;47.674;-2.050;2024-03-08T01:09:25;18.50;50.20
81935;DHT22;71405;47.674;-2.050;2024-03-08T01:11:52;18.50;50.30
81935;DHT22;71405;47.674;-2.050;2024-03-08T01:14:20;18.50;50.20
81935;DHT22;71405;47.674;-2.050;2024-03-08T01:16:49;18.50;49.70
81935;DHT22;71405;47.674;-2.050;2024-03-08T01:19:15;18.50;50.30
81935;DHT22;71405;47.674;-2.050;2024-03-08T01:21:41;18.50;50.20
81935;DHT22;71405;47.674;-2.050;2024-03-08T01:24:07;18.50;50.40
81935;DHT22;71405;47.674;-2.050;2024-03-08T01:26:33;18.50;50.60
81935;DHT22;71405;47.674;-2.050;2024-03-08T01:29:02;18.50;50.90
81935;DHT22;71405;47.674;-2.050;2024-03-08T01:31:31;18.50;50.90
81935;DHT22;71405;47.674;-2.050;2024-03-08T01:33:58;18.50;50.80
81935;DHT22;71405;47.674;-2.050;2024-03-08T01:36:24;18.50;50.40
81935;DHT22;71405;47.674;-2.050;2024-03-08T01:38:50;18.50;50.60
81935;DHT22;71405;47.674;-2.050;2024-03-08T01:41:16;18.50;50.40
81935;DHT22;71405;47.674;-2.050;2024-03-08T01:43:43;18.50;50.70
81935;DHT22;71405;47.674;-2.050;2024-03-08T01:46:09;18.50;50.40
81935;DHT22;71405;47.674;-2.050;2024-03-08T01:48:36;18.50;50.20
81935;DHT22;71405;47.674;-2.050;2024-03-08T01:51:02;18.50;50.40
81935;DHT22;71405;47.674;-2.050;2024-03-08T01:53:29;18.50;50.50
81935;DHT22;71405;47.674;-2.050;2024-03-08T01:55:57;18.50;50.60
81935;DHT22;71405;47.674;-2.050;2024-03-08T01:58:23;18.50;50.30
81935;DHT22;71405;47.674;-2.050;2024-03-08T02:00:49;18.50;50.30
81935;DHT22;71405;47.674;-2.050;2024-03-08T02:03:16;18.50;50.40
81935;DHT22;71405;47.674;-2.050;2024-03-08T02:05:41;18.50;50.10
81935;DHT22;71405;47.674;-2.050;2024-03-08T02:08:08;18.50;50.30
81935;DHT22;71405;47.674;-2.050;2024-03-08T02:10:38;18.50;49.90
81935;DHT22;71405;47.674;-2.050;2024-03-08T02:13:04;18.50;50.20
81935;DHT22;71405;47.674;-2.050;2024-03-08T02:15:52;18.50;49.80
81935;DHT22;71405;47.674;-2.050;2024-03-08T02:18:19;18.50;49.30
81935;DHT22;71405;47.674;-2.050;2024-03-08T02:21:06;18.50;49.80
81935;DHT22;71405;47.674;-2.050;2024-03-08T02:23:33;18.50;49.70
81935;DHT22;71405;47.674;-2.050;2024-03-08T02:25:59;18.50;49.80
81935;DHT22;71405;47.674;-2.050;2024-03-08T02:28:25;18.50;49.60
81935;DHT22;71405;47.674;-2.050;2024-03-08T02:30:51;18.50;50.20
81935;DHT22;71405;47.674;-2.050;2024-03-08T02:33:20;18.50;49.90
81935;DHT22;71405;47.674;-2.050;2024-03-08T02:35:46;18.50;49.50
81935;DHT22;71405;47.674;-2.050;2024-03-08T02:38:17;18.50;49.60
81935;DHT22;71405;47.674;-2.050;2024-03-08T02:40:44;18.50;49.90
81935;DHT22;71405;47.674;-2.050;2024-03-08T02:43:11;18.50;49.40
81935;DHT22;71405;47.674;-2.050;2024-03-08T02:45:37;18.50;49.50
81935;DHT22;71405;47.674;-2.050;2024-03-08T02:48:03;18.50;49.80
81935;DHT22;71405;47.674;-2.050;2024-03-08T02:50:28;18.50;49.90
81935;DHT22;71405;47.674;-2.050;2024-03-08T02:52:54;18.50;49.60
81935;DHT22;71405;47.674;-2.050;2024-03-08T02:55:20;18.50;49.60
81935;DHT22;71405;47.674;-2.050;2024-03-08T02:57:46;18.50;49.30
81935;DHT22;71405;47.674;-2.050;2024-03-08T03:00:15;18.50;49.60
81935;DHT22;71405;47.674;-2.050;2024-03-08T03:02:41;18.50;49.90
81935;DHT22;71405;47.674;-2.050;2024-03-08T03:05:08;18.50;49.70
81935;DHT22;71405;47.674;-2.050;2024-03-08T03:07:35;18.50;49.80
81935;DHT22;71405;47.674;-2.050;2024-03-08T03:10:01;18.50;49.80
81935;DHT22;71405;47.674;-2.050;2024-03-08T03:12:28;18.50;50.00
81935;DHT22;71405;47.674;-2.050;2024-03-08T03:14:53;18.50;49.70
81935;DHT22;71405;47.674;-2.050;2024-03-08T03:17:19;18.50;49.90
81935;DHT22;71405;47.674;-2.050;2024-03-08T03:19:45;18.50;49.60
81935;DHT22;71405;47.674;-2.050;2024-03-08T03:22:12;18.50;49.80
81935;DHT22;71405;47.674;-2.050;2024-03-08T03:24:38;18.50;50.00
81935;DHT22;71405;47.674;-2.050;2024-03-08T03:27:04;18.50;49.40
81935;DHT22;71405;47.674;-2.050;2024-03-08T03:29:39;18.50;49.90
81935;DHT22;71405;47.674;-2.050;2024-03-08T03:32:08;18.50;49.40
81935;DHT22;71405;47.674;-2.050;2024-03-08T03:34:34;18.50;49.60
81935;DHT22;71405;47.674;-2.050;2024-03-08T03:37:06;18.50;49.50
81935;DHT22;71405;47.674;-2.050;2024-03-08T03:39:38;18.50;49.50
81935;DHT22;71405;47.674;-2.050;2024-03-08T03:42:17;18.50;49.90
81935;DHT22;71405;47.674;-2.050;2024-03-08T03:44:47;18.50;49.40
81935;DHT22;71405;47.674;-2.050;2024-03-08T03:47:13;18.50;49.50
81935;DHT22;71405;47.674;-2.050;2024-03-08T03:49:40;18.50;49.70
81935;DHT22;71405;47.674;-2.050;2024-03-08T03:52:06;18.50;49.50
81935;DHT22;71405;47.674;-2.050;2024-03-08T03:54:32;18.50;49.80
81935;DHT22;71405;47.674;-2.050;2024-03-08T03:56:58;18.50;49.70
81935;DHT22;71405;47.674;-2.050;2024-03-08T03:59:24;18.50;49.50
81935;DHT22;71405;47.674;-2.050;2024-03-08T04:01:50;18.50;49.70
81935;DHT22;71405;47.674;-2.050;2024-03-08T04:04:16;18.50;49.50
81935;DHT22;71405;47.674;-2.050;2024-03-08T04:06:41;18.50;49.50
81935;DHT22;71405;47.674;-2.050;2024-03-08T04:09:07;18.50;49.80
81935;DHT22;71405;47.674;-2.050;2024-03-08T04:11:33;18.50;49.70
81935;DHT22;71405;47.674;-2.050;2024-03-08T04:13:59;18.50;49.30
81935;DHT22;71405;47.674;-2.050;2024-03-08T04:16:25;18.50;49.30
81935;DHT22;71405;47.674;-2.050;2024-03-08T04:18:51;18.50;49.30
81935;DHT22;71405;47.674;-2.050;2024-03-08T04:21:17;18.50;49.40
81935;DHT22;71405;47.674;-2.050;2024-03-08T04:23:44;18.50;49.40
81935;DHT22;71405;47.674;-2.050;2024-03-08T04:26:11;18.50;49.60
81935;DHT22;71405;47.674;-2.050;2024-03-08T04:28:36;18.60;50.00
81935;DHT22;71405;47.674;-2.050;2024-03-08T04:31:03;18.60;49.80
81935;DHT22;71405;47.674;-2.050;2024-03-08T04:33:29;18.60;49.30
81935;DHT22;71405;47.674;-2.050;2024-03-08T04:35:55;18.50;49.60
81935;DHT22;71405;47.674;-2.050;2024-03-08T04:38:21;18.60;49.50
81935;DHT22;71405;47.674;-2.050;2024-03-08T04:40:48;18.60;49.20
81935;DHT22;71405;47.674;-2.050;2024-03-08T04:43:14;18.60;49.30
81935;DHT22;71405;47.674;-2.050;2024-03-08T04:45:40;18.60;49.10
81935;DHT22;71405;47.674;-2.050;2024-03-08T04:48:09;18.60;49.30
81935;DHT22;71405;47.674;-2.050;2024-03-08T04:50:35;18.60;49.30
81935;DHT22;71405;47.674;-2.050;2024-03-08T04:53:00;18.60;49.10
81935;DHT22;71405;47.674;-2.050;2024-03-08T04:55:26;18.60;49.30
81935;DHT22;71405;47.674;-2.050;2024-03-08T04:57:52;18.60;49.10
81935;DHT22;71405;47.674;-2.050;2024-03-08T05:00:18;18.60;49.00
81935;DHT22;71405;47.674;-2.050;2024-03-08T05:02:44;18.60;49.00
81935;DHT22;71405;47.674;-2.050;2024-03-08T05:05:10;18.60;49.30
81935;DHT22;71405;47.674;-2.050;2024-03-08T05:07:39;18.60;49.10
81935;DHT22;71405;47.674;-2.050;2024-03-08T05:10:06;18.60;48.90
81935;DHT22;71405;47.674;-2.050;2024-03-08T05:12:33;18.60;49.10
81935;DHT22;71405;47.674;-2.050;2024-03-08T05:14:58;18.60;48.90
81935;DHT22;71405;47.674;-2.050;2024-03-08T05:17:24;18.60;48.90
81935;DHT22;71405;47.674;-2.050;2024-03-08T05:19:50;18.70;49.10
81935;DHT22;71405;47.674;-2.050;2024-03-08T05:22:16;18.70;49.20
81935;DHT22;71405;47.674;-2.050;2024-03-08T05:24:43;18.70;48.70
81935;DHT22;71405;47.674;-2.050;2024-03-08T05:27:08;18.70;48.60
81935;DHT22;71405;47.674;-2.050;2024-03-08T05:29:34;18.70;48.70
81935;DHT22;71405;47.674;-2.050;2024-03-08T05:32:00;18.70;48.80
81935;DHT22;71405;47.674;-2.050;2024-03-08T05:34:26;18.70;48.80
81935;DHT22;71405;47.674;-2.050;2024-03-08T05:36:54;18.70;48.60
81935;DHT22;71405;47.674;-2.050;2024-03-08T05:39:20;18.70;48.30
81935;DHT22;71405;47.674;-2.050;2024-03-08T05:41:46;18.70;48.80
81935;DHT22;71405;47.674;-2.050;2024-03-08T05:44:12;18.70;48.60
81935;DHT22;71405;47.674;-2.050;2024-03-08T05:46:39;18.70;48.60
81935;DHT22;71405;47.674;-2.050;2024-03-08T05:49:05;18.70;48.70
81935;DHT22;71405;47.674;-2.050;2024-03-08T05:51:35;18.70;48.50
81935;DHT22;71405;47.674;-2.050;2024-03-08T05:54:05;18.80;48.70
81935;DHT22;71405;47.674;-2.050;2024-03-08T05:56:32;18.70;48.60
81935;DHT22;71405;47.674;-2.050;2024-03-08T05:58:57;18.80;48.90
81935;DHT22;71405;47.674;-2.050;2024-03-08T06:01:26;18.80;48.80
81935;DHT22;71405;47.674;-2.050;2024-03-08T06:03:55;18.80;48.20
81935;DHT22;71405;47.674;-2.050;2024-03-08T06:06:25;18.80;48.10
81935;DHT22;71405;47.674;-2.050;2024-03-08T06:08:51;18.80;48.80
81935;DHT22;71405;47.674;-2.050;2024-03-08T06:11:18;18.80;48.70
81935;DHT22;71405;47.674;-2.050;2024-03-08T06:13:44;18.80;48.70
81935;DHT22;71405;47.674;-2.050;2024-03-08T06:16:10;18.80;48.70
81935;DHT22;71405;47.674;-2.050;2024-03-08T06:18:37;18.80;48.00
81935;DHT22;71405;47.674;-2.050;2024-03-08T06:21:06;18.80;48.10
81935;DHT22;71405;47.674;-2.050;2024-03-08T06:23:33;18.70;48.00
81935;DHT22;71405;47.674;-2.050;2024-03-08T06:25:58;18.70;47.90
81935;DHT22;71405;47.674;-2.050;2024-03-08T06:28:24;18.70;48.60
81935;DHT22;71405;47.674;-2.050;2024-03-08T06:30:50;18.70;48.40
81935;DHT22;71405;47.674;-2.050;2024-03-08T06:33:17;18.70;48.60
81935;DHT22;71405;47.674;-2.050;2024-03-08T06:35:43;18.70;49.30
81935;DHT22;71405;47.674;-2.050;2024-03-08T06:38:09;18.70;50.00
81935;DHT22;71405;47.674;-2.050;2024-03-08T06:40:34;18.60;49.30
81935;DHT22;71405;47.674;-2.050;2024-03-08T06:43:00;18.60;49.20
81935;DHT22;71405;47.674;-2.050;2024-03-08T06:45:26;18.60;49.50
81935;DHT22;71405;47.674;-2.050;2024-03-08T06:47:52;18.60;49.80
81935;DHT22;71405;47.674;-2.050;2024-03-08T06:50:17;18.60;48.80
81935;DHT22;71405;47.674;-2.050;2024-03-08T06:52:43;18.60;48.40
81935;DHT22;71405;47.674;-2.050;2024-03-08T06:55:10;18.60;49.70
81935;DHT22;71405;47.674;-2.050;2024-03-08T06:57:41;18.60;50.00
81935;DHT22;71405;47.674;-2.050;2024-03-08T07:00:08;18.60;49.50
81935;DHT22;71405;47.674;-2.050;2024-03-08T07:02:40;18.60;50.20
81935;DHT22;71405;47.674;-2.050;2024-03-08T07:05:07;18.60;50.40
81935;DHT22;71405;47.674;-2.050;2024-03-08T07:07:36;18.60;50.40
81935;DHT22;71405;47.674;-2.050;2024-03-08T07:10:01;18.50;49.30
81935;DHT22;71405;47.674;-2.050;2024-03-08T07:12:27;18.50;49.50
81935;DHT22;71405;47.674;-2.050;2024-03-08T07:14:53;18.50;49.80
81935;DHT22;71405;47.674;-2.050;2024-03-08T07:17:18;18.50;50.50
81935;DHT22;71405;47.674;-2.050;2024-03-08T07:19:44;18.50;50.50
81935;DHT22;71405;47.674;-2.050;2024-03-08T07:22:10;18.50;50.70
81935;DHT22;71405;47.674;-2.050;2024-03-08T07:24:37;18.50;49.60
81935;DHT22;71405;47.674;-2.050;2024-03-08T07:27:04;18.50;53.00
81935;DHT22;71405;47.674;-2.050;2024-03-08T07:29:31;18.50;51.80
81935;DHT22;71405;47.674;-2.050;2024-03-08T07:31:56;18.50;53.20
81935;DHT22;71405;47.674;-2.050;2024-03-08T07:34:28;18.50;52.50
81935;DHT22;71405;47.674;-2.050;2024-03-08T07:36:58;18.50;52.00
81935;DHT22;71405;47.674;-2.050;2024-03-08T07:39:25;18.50;52.20
81935;DHT22;71405;47.674;-2.050;2024-03-08T07:41:51;18.50;52.30
81935;DHT22;71405;47.674;-2.050;2024-03-08T07:44:18;18.50;52.10
81935;DHT22;71405;47.674;-2.050;2024-03-08T07:46:44;18.50;52.00
81935;DHT22;71405;47.674;-2.050;2024-03-08T07:49:10;18.50;52.20
81935;DHT22;71405;47.674;-2.050;2024-03-08T07:51:37;18.50;52.40
81935;DHT22;71405;47.674;-2.050;2024-03-08T07:54:04;18.50;52.70
81935;DHT22;71405;47.674;-2.050;2024-03-08T07:56:30;18.50;52.70
81935;DHT22;71405;47.674;-2.050;2024-03-08T07:58:56;18.40;52.70
81935;DHT22;71405;47.674;-2.050;2024-03-08T08:01:22;18.50;52.70
81935;DHT22;71405;47.674;-2.050;2024-03-08T08:03:48;18.40;52.90
81935;DHT22;71405;47.674;-2.050;2024-03-08T08:06:16;18.40;52.50
81935;DHT22;71405;47.674;-2.050;2024-03-08T08:08:42;18.40;52.50
81935;DHT22;71405;47.674;-2.050;2024-03-08T08:11:09;18.40;52.40
81935;DHT22;71405;47.674;-2.050;2024-03-08T08:13:35;18.40;52.30
81935;DHT22;71405;47.674;-2.050;2024-03-08T08:16:02;18.40;52.60
81935;DHT22;71405;47.674;-2.050;2024-03-08T08:18:28;18.40;52.40
81935;DHT22;71405;47.674;-2.050;2024-03-08T08:20:55;18.40;52.40
81935;DHT22;71405;47.674;-2.050;2024-03-08T08:23:21;18.40;52.50
81935;DHT22;71405;47.674;-2.050;2024-03-08T08:25:47;18.40;52.30
81935;DHT22;71405;47.674;-2.050;2024-03-08T08:28:16;18.40;51.80
81935;DHT22;71405;47.674;-2.050;2024-03-08T08:30:44;18.40;52.20
81935;DHT22;71405;47.674;-2.050;2024-03-08T08:33:09;18.40;52.70
81935;DHT22;71405;47.674;-2.050;2024-03-08T08:35:39;18.40;52.20
81935;DHT22;71405;47.674;-2.050;2024-03-08T08:38:05;18.40;52.60
81935;DHT22;71405;47.674;-2.050;2024-03-08T08:40:30;18.40;51.90
81935;DHT22;71405;47.674;-2.050;2024-03-08T08:42:58;18.40;52.10
81935;DHT22;71405;47.674;-2.050;2024-03-08T08:45:23;18.40;52.00
81935;DHT22;71405;47.674;-2.050;2024-03-08T08:47:49;18.40;52.10
81935;DHT22;71405;47.674;-2.050;2024-03-08T08:50:15;18.40;51.70
81935;DHT22;71405;47.674;-2.050;2024-03-08T08:52:42;18.40;51.80
81935;DHT22;71405;47.674;-2.050;2024-03-08T08:55:09;18.40;51.90
81935;DHT22;71405;47.674;-2.050;2024-03-08T08:57:40;18.40;52.20
81935;DHT22;71405;47.674;-2.050;2024-03-08T09:00:06;18.40;52.20
81935;DHT22;71405;47.674;-2.050;2024-03-08T09:02:33;18.40;52.30
81935;DHT22;71405;47.674;-2.050;2024-03-08T09:05:00;18.40;52.00
81935;DHT22;71405;47.674;-2.050;2024-03-08T09:07:26;18.40;52.00
81935;DHT22;71405;47.674;-2.050;2024-03-08T09:09:53;18.40;51.70
81935;DHT22;71405;47.674;-2.050;2024-03-08T09:12:23;18.30;51.50
81935;DHT22;71405;47.674;-2.050;2024-03-08T09:14:48;18.40;52.10
81935;DHT22;71405;47.674;-2.050;2024-03-08T09:17:15;18.30;51.20
81935;DHT22;71405;47.674;-2.050;2024-03-08T09:19:43;18.40;51.50
81935;DHT22;71405;47.674;-2.050;2024-03-08T09:22:09;18.40;51.10
81935;DHT22;71405;47.674;-2.050;2024-03-08T09:24:36;18.40;51.30
81935;DHT22;71405;47.674;-2.050;2024-03-08T09:27:02;18.40;51.00
81935;DHT22;71405;47.674;-2.050;2024-03-08T09:29:28;18.40;51.10
81935;DHT22;71405;47.674;-2.050;2024-03-08T09:31:54;18.40;51.60
81935;DHT22;71405;47.674;-2.050;2024-03-08T09:34:20;18.30;51.50
81935;DHT22;71405;47.674;-2.050;2024-03-08T09:36:45;18.40;51.40
81935;DHT22;71405;47.674;-2.050;2024-03-08T09:39:11;18.30;51.50
81935;DHT22;71405;47.674;-2.050;2024-03-08T09:41:42;18.30;51.40
81935;DHT22;71405;47.674;-2.050;2024-03-08T09:44:09;18.30;51.20
81935;DHT22;71405;47.674;-2.050;2024-03-08T09:46:35;18.30;51.20
81935;DHT22;71405;47.674;-2.050;2024-03-08T09:49:01;18.30;51.20
81935;DHT22;71405;47.674;-2.050;2024-03-08T09:51:31;18.40;51.30
81935;DHT22;71405;47.674;-2.050;2024-03-08T09:53:58;18.40;51.30
81935;DHT22;71405;47.674;-2.050;2024-03-08T09:56:25;18.30;51.30
81935;DHT22;71405;47.674;-2.050;2024-03-08T09:58:53;18.40;50.90
81935;DHT22;71405;47.674;-2.050;2024-03-08T10:01:37;18.40;51.30
81935;DHT22;71405;47.674;-2.050;2024-03-08T10:04:04;18.30;51.40
81935;DHT22;71405;47.674;-2.050;2024-03-08T10:06:30;18.30;51.00
81935;DHT22;71405;47.674;-2.050;2024-03-08T10:08:57;18.40;50.90
81935;DHT22;71405;47.674;-2.050;2024-03-08T10:11:24;18.40;51.20
81935;DHT22;71405;47.674;-2.050;2024-03-08T10:13:49;18.40;50.80
81935;DHT22;71405;47.674;-2.050;2024-03-08T10:16:16;18.40;50.40
81935;DHT22;71405;47.674;-2.050;2024-03-08T10:18:45;18.40;50.40
81935;DHT22;71405;47.674;-2.050;2024-03-08T10:21:12;18.50;50.10
81935;DHT22;71405;47.674;-2.050;2024-03-08T10:23:38;18.50;49.90
81935;DHT22;71405;47.674;-2.050;2024-03-08T10:26:17;18.50;50.30
81935;DHT22;71405;47.674;-2.050;2024-03-08T10:28:51;18.50;50.10
81935;DHT22;71405;47.674;-2.050;2024-03-08T10:31:17;18.50;50.30
81935;DHT22;71405;47.674;-2.050;2024-03-08T10:33:44;18.50;50.30
81935;DHT22;71405;47.674;-2.050;2024-03-08T10:36:14;18.50;50.10
81935;DHT22;71405;47.674;-2.050;2024-03-08T10:38:41;18.50;49.90
81935;DHT22;71405;47.674;-2.050;2024-03-08T10:41:09;18.50;50.30
81935;DHT22;71405;47.674;-2.050;2024-03-08T10:49:29;18.50;50.30
81935;DHT22;71405;47.674;-2.050;2024-03-08T10:51:57;18.50;50.10
81935;DHT22;71405;47.674;-2.050;2024-03-08T10:54:25;18.50;50.20
81935;DHT22;71405;47.674;-2.050;2024-03-08T10:56:51;18.50;50.20
81935;DHT22;71405;47.674;-2.050;2024-03-08T10:59:18;18.60;50.10
81935;DHT22;71405;47.674;-2.050;2024-03-08T11:01:45;18.60;50.20
81935;DHT22;71405;47.674;-2.050;2024-03-08T11:04:11;18.60;50.10
81935;DHT22;71405;47.674;-2.050;2024-03-08T11:09:03;18.60;50.10
81935;DHT22;71405;47.674;-2.050;2024-03-08T11:11:32;18.60;50.20
81935;DHT22;71405;47.674;-2.050;2024-03-08T11:14:01;18.60;49.80
81935;DHT22;71405;47.674;-2.050;2024-03-08T11:21:43;18.60;49.90
81935;DHT22;71405;47.674;-2.050;2024-03-08T11:24:14;18.60;49.90
81935;DHT22;71405;47.674;-2.050;2024-03-08T11:26:42;18.70;50.00
81935;DHT22;71405;47.674;-2.050;2024-03-08T11:32:17;18.70;49.40
81935;DHT22;71405;47.674;-2.050;2024-03-08T11:34:48;18.70;49.40
81935;DHT22;71405;47.674;-2.050;2024-03-08T11:37:18;18.70;49.70
81935;DHT22;71405;47.674;-2.050;2024-03-08T11:39:51;18.70;49.70
81935;DHT22;71405;47.674;-2.050;2024-03-08T11:42:18;18.70;49.50
81935;DHT22;71405;47.674;-2.050;2024-03-08T11:44:47;18.80;49.60
81935;DHT22;71405;47.674;-2.050;2024-03-08T11:47:14;18.80;49.70
81935;DHT22;71405;47.674;-2.050;2024-03-08T11:49:40;18.80;49.70
81935;DHT22;71405;47.674;-2.050;2024-03-08T11:52:17;18.80;49.90
81935;DHT22;71405;47.674;-2.050;2024-03-08T11:55:01;18.80;49.80
81935;DHT22;71405;47.674;-2.050;2024-03-08T11:57:27;18.80;50.10
81935;DHT22;71405;47.674;-2.050;2024-03-08T11:59:54;18.80;50.00
81935;DHT22;71405;47.674;-2.050;2024-03-08T12:02:24;18.80;50.00
81935;DHT22;71405;47.674;-2.050;2024-03-08T12:04:57;18.80;50.00
81935;DHT22;71405;47.674;-2.050;2024-03-08T12:07:23;18.80;49.90
81935;DHT22;71405;47.674;-2.050;2024-03-08T12:10:20;18.80;50.10
81935;DHT22;71405;47.674;-2.050;2024-03-08T12:12:51;18.80;49.70
81935;DHT22;71405;47.674;-2.050;2024-03-08T12:15:18;18.80;49.90
81935;DHT22;71405;47.674;-2.050;2024-03-08T12:17:45;18.80;49.70
81935;DHT22;71405;47.674;-2.050;2024-03-08T12:22:46;18.70;49.20
81935;DHT22;71405;47.674;-2.050;2024-03-08T12:25:12;18.80;49.60
81935;DHT22;71405;47.674;-2.050;2024-03-08T12:27:39;18.80;49.50
81935;DHT22;71405;47.674;-2.050;2024-03-08T12:30:25;18.80;49.40
81935;DHT22;71405;47.674;-2.050;2024-03-08T12:32:58;18.80;49.30
81935;DHT22;71405;47.674;-2.050;2024-03-08T12:35:26;18.70;49.80
81935;DHT22;71405;47.674;-2.050;2024-03-08T12:37:56;18.70;50.20
81935;DHT22;71405;47.674;-2.050;2024-03-08T12:40:26;18.70;50.00
81935;DHT22;71405;47.674;-2.050;2024-03-08T12:42:57;18.70;50.10
81935;DHT22;71405;47.674;-2.050;2024-03-08T12:45:24;18.70;49.80
81935;DHT22;71405;47.674;-2.050;2024-03-08T12:47:53;18.80;49.90
81935;DHT22;71405;47.674;-2.050;2024-03-08T12:50:20;18.70;49.50
81935;DHT22;71405;47.674;-2.050;2024-03-08T12:52:46;18.70;49.70
81935;DHT22;71405;47.674;-2.050;2024-03-08T12:55:11;18.70;49.80
81935;DHT22;71405;47.674;-2.050;2024-03-08T12:57:38;18.70;49.60
81935;DHT22;71405;47.674;-2.050;2024-03-08T13:00:05;18.70;49.70
81935;DHT22;71405;47.674;-2.050;2024-03-08T13:02:31;18.70;49.60
81935;DHT22;71405;47.674;-2.050;2024-03-08T13:04:58;18.70;49.80
81935;DHT22;71405;47.674;-2.050;2024-03-08T13:07:24;18.70;49.80
81935;DHT22;71405;47.674;-2.050;2024-03-08T13:09:54;18.70;50.00
81935;DHT22;71405;47.674;-2.050;2024-03-08T13:12:23;18.70;50.30
81935;DHT22;71405;47.674;-2.050;2024-03-08T13:14:49;18.70;50.40
81935;DHT22;71405;47.674;-2.050;2024-03-08T13:17:15;18.70;50.60
81935;DHT22;71405;47.674;-2.050;2024-03-08T13:19:41;18.70;50.40
81935;DHT22;71405;47.674;-2.050;2024-03-08T13:22:10;18.70;50.40
81935;DHT22;71405;47.674;-2.050;2024-03-08T13:24:39;18.70;50.90
81935;DHT22;71405;47.674;-2.050;2024-03-08T13:27:09;18.70;50.70
81935;DHT22;71405;47.674;-2.050;2024-03-08T13:29:49;18.70;50.40
81935;DHT22;71405;47.674;-2.050;2024-03-08T13:32:15;18.70;50.90
81935;DHT22;71405;47.674;-2.050;2024-03-08T13:34:43;18.60;50.60
81935;DHT22;71405;47.674;-2.050;2024-03-08T13:37:09;18.60;50.00
81935;DHT22;71405;47.674;-2.050;2024-03-08T13:39:37;18.60;50.10
81935;DHT22;71405;47.674;-2.050;2024-03-08T13:42:12;18.60;49.90
81935;DHT22;71405;47.674;-2.050;2024-03-08T13:44:39;18.60;49.90
81935;DHT22;71405;47.674;-2.050;2024-03-08T13:47:08;18.60;50.10
81935;DHT22;71405;47.674;-2.050;2024-03-08T13:49:34;18.60;50.20
81935;DHT22;71405;47.674;-2.050;2024-03-08T13:52:00;18.60;50.60
81935;DHT22;71405;47.674;-2.050;2024-03-08T13:54:25;18.60;50.40
81935;DHT22;71405;47.674;-2.050;2024-03-08T13:56:52;18.60;50.50
81935;DHT22;71405;47.674;-2.050;2024-03-08T13:59:20;18.60;50.70
81935;DHT22;71405;47.674;-2.050;2024-03-08T14:01:48;18.60;51.40
81935;DHT22;71405;47.674;-2.050;2024-03-08T14:04:17;18.60;51.00
81935;DHT22;71405;47.674;-2.050;2024-03-08T14:06:43;18.60;51.20
81935;DHT22;71405;47.674;-2.050;2024-03-08T14:09:11;18.60;51.20
81935;DHT22;71405;47.674;-2.050;2024-03-08T14:11:42;18.60;50.90
81935;DHT22;71405;47.674;-2.050;2024-03-08T14:14:10;18.60;50.90
81935;DHT22;71405;47.674;-2.050;2024-03-08T14:16:38;18.60;50.80
81935;DHT22;71405;47.674;-2.050;2024-03-08T14:19:04;18.60;50.70
81935;DHT22;71405;47.674;-2.050;2024-03-08T14:21:31;18.60;51.00
81935;DHT22;71405;47.674;-2.050;2024-03-08T14:23:57;18.50;51.00
81935;DHT22;71405;47.674;-2.050;2024-03-08T14:26:23;18.50;51.10
81935;DHT22;71405;47.674;-2.050;2024-03-08T14:28:49;18.50;50.90
81935;DHT22;71405;47.674;-2.050;2024-03-08T14:31:20;18.50;51.80
81935;DHT22;71405;47.674;-2.050;2024-03-08T14:33:46;18.50;51.80
81935;DHT22;71405;47.674;-2.050;2024-03-08T14:36:15;18.50;51.40
81935;DHT22;71405;47.674;-2.050;2024-03-08T14:38:43;18.50;51.90
81935;DHT22;71405;47.674;-2.050;2024-03-08T14:41:08;18.50;52.20
81935;DHT22;71405;47.674;-2.050;2024-03-08T14:43:34;18.50;51.60
81935;DHT22;71405;47.674;-2.050;2024-03-08T14:46:00;18.50;51.20
81935;DHT22;71405;47.674;-2.050;2024-03-08T14:48:26;18.50;52.00
81935;DHT22;71405;47.674;-2.050;2024-03-08T14:50:51;18.50;51.20
81935;DHT22;71405;47.674;-2.050;2024-03-08T14:53:17;18.50;52.00
81935;DHT22;71405;47.674;-2.050;2024-03-08T14:55:44;18.50;51.30
81935;DHT22;71405;47.674;-2.050;2024-03-08T14:58:13;18.50;51.90
81935;DHT22;71405;47.674;-2.050;2024-03-08T15:00:38;18.50;51.70
81935;DHT22;71405;47.674;-2.050;2024-03-08T15:03:07;18.50;51.70
81935;DHT22;71405;47.674;-2.050;2024-03-08T15:05:35;18.50;51.50
81935;DHT22;71405;47.674;-2.050;2024-03-08T15:08:06;18.50;51.50
81935;DHT22;71405;47.674;-2.050;2024-03-08T15:10:35;18.50;51.80
81935;DHT22;71405;47.674;-2.050;2024-03-08T15:13:01;18.50;51.70
81935;DHT22;71405;47.674;-2.050;2024-03-08T15:15:33;18.50;51.40
81935;DHT22;71405;47.674;-2.050;2024-03-08T15:17:58;18.50;51.50
81935;DHT22;71405;47.674;-2.050;2024-03-08T15:20:24;18.50;51.20
81935;DHT22;71405;47.674;-2.050;2024-03-08T15:22:51;18.50;51.50
81935;DHT22;71405;47.674;-2.050;2024-03-08T15:25:24;18.50;51.60
81935;DHT22;71405;47.674;-2.050;2024-03-08T15:27:53;18.50;51.20
81935;DHT22;71405;47.674;-2.050;2024-03-08T15:30:19;18.50;51.50
81935;DHT22;71405;47.674;-2.050;2024-03-08T15:32:48;18.50;51.40
81935;DHT22;71405;47.674;-2.050;2024-03-08T15:35:16;18.40;51.30